Aho, North Carolina
Current Conditions -  °F | °C
As of 4:35 PM on Monday 24 Nov 2014 (Local Time) from KTNB Reporting Station
Clear Clear  
Wind Chill: 59°   Ceiling: Unl
Heat Index: 59°   Visibility: 10mi
Dew Point: 50°   Wind: 8mph
Humidity: 70%   Direction: 210°SSW
Pressure: 29.8"   Gusts: NA
Location:  36.0473°N, 81.8148°W
Report Text: KTNB 242135Z AUTO 21007KT 10SM CLR 15/10 A2980 RMK AO2 T01520098
Loading
Personal Weather Stations






























Interactive Weather Map New forecast layout! Learn more

10-Day Weather Forecast

Advertisements
Track Severe Weather on mobile